Time;durP1;ratioP1;P1;durP2;ratioP2;P2;SDS_P1;SDS_P2;PMS_P1;PMS_P2;Temp;Humidity;BMP_temperature;BMP_pressure;BME280_temperature;BME280_humidity;BME280_pressure;Samples;Min_cycle;Max_cycle;Signal;HPM_P1;HPM_P2
2023/07/03 00:01:00;;;;;;;1999.90;999.90;;;16.20;99.90;;;;;;4970342;28;20494;-73
2023/07/03 00:03:27;;;;;;;1999.90;999.90;;;16.00;99.90;;;;;;4968924;28;20494;-73
2023/07/03 00:05:54;;;;;;;1999.90;999.90;;;16.00;99.90;;;;;;4971173;28;20440;-73
2023/07/03 00:08:21;;;;;;;1999.90;999.90;;;15.80;99.90;;;;;;4976301;28;20448;-73
2023/07/03 00:10:48;;;;;;;1999.90;999.90;;;15.80;99.90;;;;;;4969886;28;20436;-72
2023/07/03 00:13:14;;;;;;;1999.90;999.90;;;15.80;99.90;;;;;;4969066;28;20988;-72
2023/07/03 00:15:41;;;;;;;1999.90;999.90;;;15.80;99.90;;;;;;4971114;28;20436;-71
2023/07/03 00:18:09;;;;;;;1999.90;999.90;;;15.80;99.90;;;;;;4969152;28;20440;-72
2023/07/03 00:20:35;;;;;;;1999.90;999.90;;;15.70;99.90;;;;;;4968256;28;20440;-72
2023/07/03 00:23:03;;;;;;;1999.90;999.90;;;15.70;99.90;;;;;;4969021;28;20444;-73
2023/07/03 00:25:29;;;;;;;1999.90;999.90;;;15.80;99.90;;;;;;4972008;28;20439;-72
2023/07/03 00:27:56;;;;;;;1999.90;999.90;;;16.00;99.90;;;;;;4967291;28;20883;-73
2023/07/03 00:30:22;;;;;;;1999.90;999.90;;;16.10;99.90;;;;;;4969858;28;20439;-72
2023/07/03 00:32:49;;;;;;;1999.90;999.90;;;16.20;99.90;;;;;;4969114;28;20436;-72
2023/07/03 00:35:17;;;;;;;1999.90;999.90;;;16.20;99.90;;;;;;4973499;28;20468;-72
2023/07/03 00:37:44;;;;;;;1999.90;999.90;;;16.20;99.90;;;;;;4969150;28;21060;-72
2023/07/03 00:40:12;;;;;;;1999.90;999.90;;;16.20;99.90;;;;;;4968614;28;20800;-71
2023/07/03 00:42:39;;;;;;;1999.90;999.90;;;16.30;99.90;;;;;;4966222;28;20431;-73
2023/07/03 00:45:09;;;;;;;1999.90;999.90;;;16.00;99.90;;;;;;4973984;28;20859;-73
2023/07/03 00:47:37;;;;;;;1999.90;999.90;;;16.20;99.90;;;;;;4964592;28;20934;-73
2023/07/03 00:50:04;;;;;;;1999.90;999.90;;;16.20;99.90;;;;;;4969468;28;20446;-73
2023/07/03 00:52:32;;;;;;;1999.90;999.90;;;16.20;99.90;;;;;;4969185;28;20440;-72
2023/07/03 00:54:59;;;;;;;1999.90;999.90;;;16.30;99.90;;;;;;4975816;28;20527;-73
2023/07/03 00:57:26;;;;;;;1999.90;999.90;;;16.20;99.90;;;;;;4968712;28;20443;-72
2023/07/03 00:59:52;;;;;;;1999.90;999.90;;;16.30;99.90;;;;;;4970712;28;20523;-73
2023/07/03 01:02:25;;;;;;;1999.90;999.90;;;16.20;99.90;;;;;;4972841;28;20444;-73
2023/07/03 01:04:56;;;;;;;1999.90;999.90;;;16.30;99.90;;;;;;4980964;28;20527;-73
2023/07/03 01:07:25;;;;;;;1999.90;999.90;;;16.50;99.90;;;;;;4984840;28;20435;-72
2023/07/03 01:09:56;;;;;;;1999.90;999.90;;;16.50;99.90;;;;;;4973077;28;20439;-73
2023/07/03 01:12:26;;;;;;;1999.90;999.90;;;16.50;99.90;;;;;;4972412;28;20443;-73
2023/07/03 01:14:56;;;;;;;1999.90;999.90;;;16.50;99.90;;;;;;4973137;28;20439;-72
2023/07/03 01:17:25;;;;;;;1999.90;999.90;;;16.50;99.90;;;;;;4973134;28;20502;-73
2023/07/03 01:19:53;;;;;;;1999.90;999.90;;;16.60;99.90;;;;;;4972810;28;20435;-73
2023/07/03 01:22:25;;;;;;;1999.90;999.90;;;16.50;99.90;;;;;;4972585;28;20436;-71
2023/07/03 01:24:56;;;;;;;1999.90;999.90;;;16.20;99.90;;;;;;4972350;28;20859;-73
2023/07/03 01:27:27;;;;;;;1999.90;999.90;;;16.00;99.90;;;;;;4973359;28;20515;-71
2023/07/03 01:29:54;;;;;;;1999.90;999.90;;;15.80;99.90;;;;;;4970636;28;20440;-73
2023/07/03 01:32:23;;;;;;;1999.90;999.90;;;15.80;99.90;;;;;;4976195;28;20503;-72
2023/07/03 01:34:53;;;;;;;1999.90;999.90;;;15.80;99.90;;;;;;4970898;28;20432;-71
2023/07/03 01:37:23;;;;;;;1999.90;999.90;;;15.70;99.90;;;;;;4981148;28;20801;-72
2023/07/03 01:39:53;;;;;;;1999.90;999.90;;;15.70;99.90;;;;;;4971914;28;20491;-72
2023/07/03 01:42:21;;;;;;;1999.90;999.90;;;15.70;99.90;;;;;;4974002;28;21146;-72
2023/07/03 01:44:48;;;;;;;1999.90;999.90;;;15.80;99.90;;;;;;4984124;28;20438;-73
2023/07/03 01:47:16;;;;;;;1999.90;999.90;;;15.80;99.90;;;;;;4978501;28;20467;-72
2023/07/03 01:49:42;;;;;;;1999.90;999.90;;;15.90;99.90;;;;;;4974196;28;20436;-73
2023/07/03 01:52:15;;;;;;;1999.90;999.90;;;15.90;99.90;;;;;;4979007;28;20444;-72
2023/07/03 01:54:49;;;;;;;1999.90;999.90;;;16.00;99.90;;;;;;4982213;28;20525;-71
2023/07/03 01:57:22;;;;;;;1999.90;999.90;;;16.00;99.90;;;;;;4977806;28;20527;-73
2023/07/03 01:59:53;;;;;;;1999.90;999.90;;;16.00;99.90;;;;;;4974270;28;20530;-72
2023/07/03 02:02:26;;;;;;;1999.90;999.90;;;15.80;99.90;;;;;;4969786;28;20984;-72
2023/07/03 02:04:59;;;;;;;1999.90;999.90;;;15.50;99.90;;;;;;4987458;28;20820;-72
2023/07/03 02:07:29;;;;;;;1999.90;999.90;;;15.30;99.90;;;;;;4981209;28;20498;-72
2023/07/03 02:09:56;;;;;;;1999.90;999.90;;;15.20;99.90;;;;;;4974837;28;20477;-73
2023/07/03 02:12:24;;;;;;;1999.90;999.90;;;15.30;99.90;;;;;;4971966;28;20791;-73
2023/07/03 02:14:50;;;;;;;1999.90;999.90;;;15.20;99.90;;;;;;4986566;28;20438;-71
2023/07/03 02:17:17;;;;;;;1999.90;999.90;;;15.20;99.90;;;;;;4982520;28;20487;-72
2023/07/03 02:19:43;;;;;;;1999.90;999.90;;;15.00;99.90;;;;;;4977764;28;20448;-72
2023/07/03 02:22:10;;;;;;;1999.90;999.90;;;14.90;99.90;;;;;;4974835;28;20436;-72
2023/07/03 02:24:37;;;;;;;1999.90;999.90;;;14.90;99.90;;;;;;4983124;28;20485;-72
2023/07/03 02:27:04;;;;;;;1999.90;999.90;;;15.00;99.90;;;;;;4985087;28;20519;-71
2023/07/03 02:29:32;;;;;;;1999.90;999.90;;;14.90;99.90;;;;;;4978660;28;20973;-72
2023/07/03 02:31:58;;;;;;;1999.90;999.90;;;14.90;99.90;;;;;;4978301;28;20485;-72
2023/07/03 02:34:25;;;;;;;1999.90;999.90;;;14.90;99.90;;;;;;4972901;28;20447;-72
2023/07/03 02:36:53;;;;;;;1999.90;999.90;;;15.00;99.90;;;;;;4983153;28;20427;-73
2023/07/03 02:39:19;;;;;;;1999.90;999.90;;;15.00;99.90;;;;;;4974780;28;20868;-73
2023/07/03 02:41:46;;;;;;;1999.90;999.90;;;14.90;99.90;;;;;;4980993;28;20440;-72
2023/07/03 02:44:12;;;;;;;1999.90;999.90;;;14.70;99.90;;;;;;4977034;28;20440;-73
2023/07/03 02:46:41;;;;;;;1999.90;999.90;;;14.60;99.90;;;;;;4978490;28;20856;-72
2023/07/03 02:49:08;;;;;;;1999.90;999.90;;;14.60;99.90;;;;;;4976458;28;20914;-72
2023/07/03 02:51:35;;;;;;;1999.90;999.90;;;14.60;99.90;;;;;;4977503;28;20477;-72
2023/07/03 02:54:02;;;;;;;1999.90;999.90;;;14.60;99.90;;;;;;4977580;28;20434;-72
2023/07/03 02:56:29;;;;;;;1999.90;999.90;;;14.60;99.90;;;;;;4978499;28;20446;-72
2023/07/03 02:58:56;;;;;;;1999.90;999.90;;;14.40;99.90;;;;;;4976604;28;20654;-72
2023/07/03 03:01:22;;;;;;;1999.90;999.90;;;14.40;99.90;;;;;;4982320;28;20537;-73
2023/07/03 03:03:50;;;;;;;1999.90;999.90;;;14.60;99.90;;;;;;4981989;28;20493;-72
2023/07/03 03:06:17;;;;;;;1999.90;999.90;;;14.50;99.90;;;;;;4970638;28;20514;-72
2023/07/03 03:08:45;;;;;;;1999.90;999.90;;;14.70;99.90;;;;;;4972087;28;20440;-72
2023/07/03 03:11:13;;;;;;;1999.90;999.90;;;14.70;99.90;;;;;;4986477;28;20443;-72
2023/07/03 03:13:41;;;;;;;1999.90;999.90;;;14.70;99.90;;;;;;4983848;28;20434;-72
2023/07/03 03:16:08;;;;;;;1999.90;999.90;;;14.70;99.90;;;;;;4978132;28;20941;-72
2023/07/03 03:18:34;;;;;;;1999.90;999.90;;;14.70;99.90;;;;;;4974737;28;20519;-72
2023/07/03 03:21:02;;;;;;;1999.90;999.90;;;14.70;99.90;;;;;;4978292;28;20534;-72
2023/07/03 03:23:29;;;;;;;1999.90;999.90;;;14.70;99.90;;;;;;4985091;28;20500;-72
2023/07/03 03:25:55;;;;;;;1999.90;999.90;;;14.60;99.90;;;;;;4982606;28;20442;-72
2023/07/03 03:28:22;;;;;;;1999.90;999.90;;;14.50;99.90;;;;;;4976330;28;20432;-71
2023/07/03 03:30:49;;;;;;;1999.90;999.90;;;14.40;99.90;;;;;;4969853;28;20444;-72
2023/07/03 03:33:15;;;;;;;1999.90;999.90;;;14.40;99.90;;;;;;4979254;28;20444;-72
2023/07/03 03:35:42;;;;;;;1999.90;999.90;;;14.50;99.90;;;;;;4982868;28;20434;-71
2023/07/03 03:38:10;;;;;;;1999.90;999.90;;;14.70;99.90;;;;;;4977974;28;20430;-72
2023/07/03 03:40:36;;;;;;;1999.90;999.90;;;14.70;99.90;;;;;;4969756;28;20439;-72
2023/07/03 03:43:03;;;;;;;1999.90;999.90;;;14.80;99.90;;;;;;4977644;28;20929;-72
2023/07/03 03:45:29;;;;;;;1999.90;999.90;;;14.90;99.90;;;;;;4984351;28;20493;-71
2023/07/03 03:47:56;;;;;;;1999.90;999.90;;;15.00;99.90;;;;;;4982363;28;20420;-72
2023/07/03 03:50:23;;;;;;;1999.90;999.90;;;15.10;99.90;;;;;;4972597;28;20442;-73
2023/07/03 03:52:49;;;;;;;1999.90;999.90;;;15.20;99.90;;;;;;4971407;28;20926;-73
2023/07/03 03:55:17;;;;;;;1999.90;999.90;;;15.30;99.90;;;;;;4979643;28;20486;-72
2023/07/03 03:57:44;;;;;;;1999.90;999.90;;;15.30;99.90;;;;;;4984493;28;20434;-72
2023/07/03 04:00:16;;;;;;;1999.90;999.90;;;15.50;99.90;;;;;;4974968;28;20994;-72
2023/07/03 04:02:43;;;;;;;1999.90;999.90;;;15.60;99.90;;;;;;4972210;28;20505;-72
2023/07/03 04:05:11;;;;;;;1999.90;999.90;;;15.60;99.90;;;;;;4968180;28;20448;-72
2023/07/03 04:07:38;;;;;;;1999.90;999.90;;;15.50;99.90;;;;;;4980890;28;20488;-72
2023/07/03 04:10:06;;;;;;;1999.90;999.90;;;15.60;99.90;;;;;;4977838;28;20950;-69
2023/07/03 04:12:34;;;;;;;1999.90;999.90;;;15.50;99.90;;;;;;4974971;28;20495;-71
2023/07/03 04:15:01;;;;;;;1999.90;999.90;;;15.50;99.90;;;;;;4973569;28;20436;-72
2023/07/03 04:17:28;;;;;;;1999.90;999.90;;;15.50;99.90;;;;;;4981534;28;20481;-69
2023/07/03 04:19:54;;;;;;;1999.90;999.90;;;15.60;99.90;;;;;;4981109;28;20860;-72
2023/07/03 04:22:21;;;;;;;1999.90;999.90;;;15.50;99.90;;;;;;4977787;28;20440;-72
2023/07/03 04:24:48;;;;;;;1999.90;999.90;;;15.70;99.90;;;;;;4974542;28;20539;-72
2023/07/03 04:27:15;;;;;;;1999.90;999.90;;;15.70;99.90;;;;;;4973167;28;20477;-71
2023/07/03 04:29:42;;;;;;;1999.90;999.90;;;15.90;99.90;;;;;;4982721;28;20441;-72
2023/07/03 04:32:10;;;;;;;1999.90;999.90;;;16.10;99.90;;;;;;4980431;28;20442;-71
2023/07/03 04:34:37;;;;;;;1999.90;999.90;;;16.30;99.90;;;;;;4969494;28;20828;-71
2023/07/03 04:37:04;;;;;;;1999.90;999.90;;;16.50;99.90;;;;;;4971242;28;20452;-71
2023/07/03 04:39:31;;;;;;;1999.90;999.90;;;16.60;99.90;;;;;;4973576;28;20504;-71
2023/07/03 04:42:00;;;;;;;1999.90;999.90;;;16.70;99.90;;;;;;4984214;28;20449;-72
2023/07/03 04:44:26;;;;;;;1999.90;999.90;;;16.80;99.90;;;;;;4977733;28;20444;-72
2023/07/03 04:46:55;;;;;;;1999.90;999.90;;;16.70;99.90;;;;;;4974095;28;20436;-70
2023/07/03 04:49:25;;;;;;;1999.90;999.90;;;16.80;99.90;;;;;;4965614;28;20468;-72
2023/07/03 04:51:52;;;;;;;1999.90;999.90;;;17.20;99.90;;;;;;4983342;28;20794;-71
2023/07/03 04:54:19;;;;;;;1999.90;999.90;;;17.10;99.90;;;;;;4980086;28;20447;-72
2023/07/03 04:56:48;;;;;;;1999.90;999.90;;;17.00;99.90;;;;;;4976591;28;20470;-72
2023/07/03 04:59:14;;;;;;;1999.90;999.90;;;16.70;99.90;;;;;;4969633;28;20966;-72
2023/07/03 05:01:42;;;;;;;1999.90;999.90;;;16.50;99.90;;;;;;4976163;28;20442;-72
2023/07/03 05:04:10;;;;;;;1999.90;999.90;;;16.30;99.90;;;;;;4983177;28;20434;-71
2023/07/03 05:06:37;;;;;;;1999.90;999.90;;;16.30;99.90;;;;;;4980068;28;20506;-72
2023/07/03 05:09:05;;;;;;;1999.90;999.90;;;16.40;99.90;;;;;;4976923;28;20431;-72
2023/07/03 05:11:33;;;;;;;1999.90;999.90;;;16.70;99.90;;;;;;4971644;28;20444;-72
2023/07/03 05:14:00;;;;;;;1999.90;999.90;;;16.80;99.90;;;;;;4983421;28;20912;-72
2023/07/03 05:16:27;;;;;;;1999.90;999.90;;;17.20;99.90;;;;;;4981037;28;20436;-72
2023/07/03 05:18:54;;;;;;;1999.90;999.90;;;17.60;99.90;;;;;;4976143;28;20468;-70
2023/07/03 05:21:22;;;;;;;1999.90;999.90;;;17.90;99.90;;;;;;4972507;28;20450;-72
2023/07/03 05:23:48;;;;;;;1999.90;999.90;;;18.00;99.90;;;;;;4975088;28;20442;-72
2023/07/03 05:26:15;;;;;;;1999.90;999.90;;;18.30;99.90;;;;;;4973421;28;20916;-73
2023/07/03 05:28:42;;;;;;;1999.90;999.90;;;18.90;99.90;;;;;;4982071;28;20447;-74
2023/07/03 05:31:08;;;;;;;1999.90;999.90;;;19.00;99.90;;;;;;4973859;28;20437;-75
2023/07/03 05:33:35;;;;;;;1999.90;999.90;;;18.80;99.90;;;;;;4971712;28;20479;-75
2023/07/03 05:36:03;;;;;;;1999.90;999.90;;;19.00;99.90;;;;;;4970978;28;20921;-73
2023/07/03 05:38:31;;;;;;;1999.90;999.90;;;18.80;99.90;;;;;;4975759;28;21057;-73
2023/07/03 05:40:58;;;;;;;1999.90;999.90;;;18.60;99.90;;;;;;4977460;28;20950;-75
2023/07/03 05:43:26;;;;;;;1999.90;999.90;;;18.60;99.90;;;;;;4974098;28;20475;-72
2023/07/03 05:45:53;;;;;;;1999.90;999.90;;;18.80;99.90;;;;;;4971771;28;20519;-72
2023/07/03 05:48:19;;;;;;;1999.90;999.90;;;19.00;99.90;;;;;;4982588;28;20534;-72
2023/07/03 05:50:46;;;;;;;1999.90;999.90;;;18.90;99.90;;;;;;4978445;28;20442;-75
2023/07/03 05:53:13;;;;;;;1999.90;999.90;;;19.20;99.90;;;;;;4981257;28;20466;-75
2023/07/03 05:55:41;;;;;;;1999.90;999.90;;;18.90;99.90;;;;;;4977018;28;20440;-74
2023/07/03 05:58:08;;;;;;;1999.90;999.90;;;19.00;99.90;;;;;;4974814;28;20455;-74
2023/07/03 06:00:34;;;;;;;1999.90;999.90;;;19.10;99.90;;;;;;4971401;28;20463;-74
2023/07/03 06:03:02;;;;;;;1999.90;999.90;;;19.10;99.90;;;;;;4985470;28;20442;-74
2023/07/03 06:05:28;;;;;;;1999.90;999.90;;;18.50;99.90;;;;;;4982212;28;20476;-71
2023/07/03 06:07:55;;;;;;;1999.90;999.90;;;18.30;99.90;;;;;;4981552;28;20432;-73
2023/07/03 06:10:23;;;;;;;1999.90;999.90;;;18.40;99.90;;;;;;4975816;28;22082;-75
2023/07/03 06:12:51;;;;;;;1999.90;999.90;;;18.70;99.90;;;;;;4975509;28;20440;-75
2023/07/03 06:15:18;;;;;;;1999.90;999.90;;;19.20;99.90;;;;;;4986863;28;20513;-75
2023/07/03 06:17:44;;;;;;;1999.90;999.90;;;19.30;99.90;;;;;;4986011;28;20482;-72
2023/07/03 06:20:11;;;;;;;1999.90;999.90;;;19.20;99.90;;;;;;4980186;28;20844;-73
2023/07/03 06:22:39;;;;;;;1999.90;999.90;;;19.50;99.90;;;;;;4977378;28;20435;-73
2023/07/03 06:25:07;;;;;;;1999.90;999.90;;;19.70;99.90;;;;;;4975138;28;20530;-75
2023/07/03 06:27:34;;;;;;;1999.90;999.90;;;19.40;99.90;;;;;;4983302;28;20434;-74
2023/07/03 06:30:02;;;;;;;1999.90;999.90;;;19.20;99.90;;;;;;4986361;28;20442;-75
2023/07/03 06:32:28;;;;;;;1999.90;999.90;;;18.90;99.90;;;;;;4980537;28;20436;-70
2023/07/03 06:34:55;;;;;;;1999.90;999.90;;;18.70;99.90;;;;;;4977007;28;20448;-72
2023/07/03 06:37:22;;;;;;;1999.90;999.90;;;18.80;99.90;;;;;;4975170;28;20444;-73
2023/07/03 06:39:48;;;;;;;1999.90;999.90;;;18.30;99.90;;;;;;4973203;28;20425;-73
2023/07/03 06:42:15;;;;;;;1999.90;999.90;;;18.50;99.90;;;;;;4985258;28;20512;-73
2023/07/03 06:44:43;;;;;;;1999.90;999.90;;;18.80;99.90;;;;;;4979249;28;20435;-72
2023/07/03 06:47:11;;;;;;;1999.90;999.90;;;18.70;99.90;;;;;;4974883;28;20493;-72
2023/07/03 06:49:38;;;;;;;1999.90;999.90;;;19.00;99.90;;;;;;4977270;28;20503;-72
2023/07/03 06:52:05;;;;;;;1999.90;999.90;;;19.10;99.90;;;;;;4976254;28;20497;-74
2023/07/03 06:54:32;;;;;;;1999.90;999.90;;;19.40;99.90;;;;;;4982007;28;20438;-75
2023/07/03 06:56:59;;;;;;;1999.90;999.90;;;19.30;99.90;;;;;;4978003;28;20438;-73
2023/07/03 06:59:26;;;;;;;1999.90;999.90;;;19.60;99.90;;;;;;4977101;28;20437;-75
2023/07/03 07:01:53;;;;;;;1999.90;999.90;;;19.90;99.90;;;;;;4980254;28;20474;-75
2023/07/03 07:04:21;;;;;;;1999.90;999.90;;;20.10;99.90;;;;;;4975571;28;20439;-75
2023/07/03 07:06:48;;;;;;;1999.90;999.90;;;20.20;99.90;;;;;;4974119;28;20444;-75
2023/07/03 07:09:15;;;;;;;1999.90;999.90;;;20.50;99.80;;;;;;4980473;28;20445;-74
2023/07/03 07:11:42;;;;;;;1999.90;999.90;;;20.30;99.40;;;;;;4985699;28;20733;-74
2023/07/03 07:14:08;;;;;;;1999.90;999.90;;;20.10;99.90;;;;;;4981506;28;20438;-75
2023/07/03 07:16:36;;;;;;;1999.90;999.90;;;20.50;99.90;;;;;;4971586;28;20935;-74
2023/07/03 07:19:06;;;;;;;1999.90;999.90;;;20.50;99.10;;;;;;4971272;28;20931;-75
2023/07/03 07:21:37;;;;;;;1999.90;999.90;;;20.60;99.20;;;;;;4962044;28;20443;-74
2023/07/03 07:24:15;;;;;;;1999.90;999.90;;;20.70;98.20;;;;;;4983896;28;20434;-75
2023/07/03 07:26:42;;;;;;;1999.90;999.90;;;20.30;99.20;;;;;;4974750;28;20928;-75
2023/07/03 07:29:08;;;;;;;1999.90;999.90;;;20.80;98.90;;;;;;4972254;28;20498;-74
2023/07/03 07:31:36;;;;;;;1999.90;999.90;;;20.90;97.80;;;;;;4967679;28;20439;-74
2023/07/03 07:34:04;;;;;;;1999.90;999.90;;;20.50;97.60;;;;;;4971990;28;20434;-75
2023/07/03 07:36:31;;;;;;;1999.90;999.90;;;20.50;98.70;;;;;;4972831;28;20419;-75
2023/07/03 07:39:00;;;;;;;1999.90;999.90;;;20.90;97.80;;;;;;4972665;28;20428;-74
2023/07/03 07:41:27;;;;;;;1999.90;999.90;;;21.00;97.00;;;;;;4970213;28;20436;-75
2023/07/03 07:43:55;;;;;;;1999.90;999.90;;;21.10;96.90;;;;;;4971744;28;20478;-74
2023/07/03 07:46:25;;;;;;;1999.90;999.90;;;21.20;96.90;;;;;;4971734;28;20497;-74
2023/07/03 07:48:51;;;;;;;1999.90;999.90;;;21.50;96.70;;;;;;4972518;28;20429;-74
2023/07/03 07:51:18;;;;;;;1999.90;999.90;;;21.40;96.80;;;;;;4970897;28;20439;-75
2023/07/03 07:53:45;;;;;;;1999.90;999.90;;;21.40;96.30;;;;;;4970896;28;20483;-73
2023/07/03 07:56:14;;;;;;;1999.90;999.90;;;21.60;96.70;;;;;;4972323;28;20423;-74
2023/07/03 07:58:40;;;;;;;1999.90;999.90;;;21.50;95.90;;;;;;4970883;28;20436;-74
2023/07/03 08:01:07;;;;;;;1999.90;999.90;;;21.70;95.40;;;;;;4972149;28;20479;-70
2023/07/03 08:03:34;;;;;;;1999.90;999.90;;;21.90;94.80;;;;;;4968960;28;20930;-72
2023/07/03 08:06:03;;;;;;;1999.90;999.90;;;21.90;94.70;;;;;;4980213;28;20483;-74
2023/07/03 08:08:31;;;;;;;1999.90;999.90;;;21.70;95.30;;;;;;4971998;28;20483;-74
2023/07/03 08:11:00;;;;;;;1999.90;999.90;;;21.50;95.20;;;;;;4969932;28;20491;-73
2023/07/03 08:13:30;;;;;;;1999.90;999.90;;;21.40;95.20;;;;;;4978510;28;20683;-73
2023/07/03 08:15:56;;;;;;;1999.90;999.90;;;21.80;94.90;;;;;;4971539;28;20439;-72
2023/07/03 08:18:24;;;;;;;1999.90;999.90;;;22.00;94.20;;;;;;4969911;28;20495;-72
2023/07/03 08:20:51;;;;;;;1999.90;999.90;;;22.30;94.10;;;;;;4968233;28;20823;-71
2023/07/03 08:23:18;;;;;;;1999.90;999.90;;;22.20;93.30;;;;;;4971660;28;20854;-72
2023/07/03 08:25:48;;;;;;;1999.90;999.90;;;22.20;93.50;;;;;;4978723;28;20434;-72
2023/07/03 08:28:15;;;;;;;1999.90;999.90;;;22.30;94.30;;;;;;4981156;28;20491;-72
2023/07/03 08:30:43;;;;;;;1999.90;999.90;;;22.60;93.80;;;;;;4972260;28;20487;-72
2023/07/03 08:33:09;;;;;;;1999.90;999.90;;;22.50;92.90;;;;;;4971098;28;20839;-73
2023/07/03 08:35:36;;;;;;;1999.90;999.90;;;22.80;93.30;;;;;;4971924;28;20474;-72
2023/07/03 08:38:03;;;;;;;1999.90;999.90;;;22.80;92.80;;;;;;4970895;28;20439;-73
2023/07/03 08:40:29;;;;;;;1999.90;999.90;;;23.10;92.20;;;;;;4971174;28;20997;-73
2023/07/03 08:42:58;;;;;;;1999.90;999.90;;;23.10;91.70;;;;;;4968401;28;20444;-72
2023/07/03 08:45:34;;;;;;;1999.90;999.90;;;22.80;91.00;;;;;;4971569;28;20482;-72
2023/07/03 08:48:05;;;;;;;1999.90;999.90;;;22.70;91.70;;;;;;4971464;28;20792;-73
2023/07/03 08:50:33;;;;;;;1999.90;999.90;;;22.90;92.30;;;;;;4971616;28;20487;-72
2023/07/03 08:53:03;;;;;;;1999.90;999.90;;;22.70;90.90;;;;;;4969976;28;20938;-72
2023/07/03 08:55:34;;;;;;;1999.90;999.90;;;22.30;91.30;;;;;;4971350;28;20462;-74
2023/07/03 08:58:01;;;;;;;1999.90;999.90;;;22.20;91.90;;;;;;4971338;28;20891;-72
2023/07/03 09:00:34;;;;;;;1999.90;999.90;;;22.40;92.30;;;;;;4971252;28;20432;-70
2023/07/03 09:03:12;;;;;;;1999.90;999.90;;;23.00;92.20;;;;;;4970191;28;20514;-72
2023/07/03 09:05:48;;;;;;;1999.90;999.90;;;23.10;91.20;;;;;;4963745;28;20459;-72
2023/07/03 09:08:20;;;;;;;1999.90;999.90;;;23.00;91.00;;;;;;4971544;28;20486;-72
2023/07/03 09:10:50;;;;;;;1999.90;999.90;;;22.60;91.30;;;;;;4971394;28;20428;-72
2023/07/03 09:13:20;;;;;;;1999.90;999.90;;;22.50;90.80;;;;;;4969928;28;20446;-72
2023/07/03 09:15:53;;;;;;;1999.90;999.90;;;22.70;91.60;;;;;;4971164;28;20486;-72
2023/07/03 09:18:26;;;;;;;1999.90;999.90;;;23.30;91.90;;;;;;4971157;28;20487;-73
2023/07/03 09:20:54;;;;;;;1999.90;999.90;;;23.30;91.40;;;;;;4971708;28;20484;-72
2023/07/03 09:23:24;;;;;;;1999.90;999.90;;;22.80;91.20;;;;;;4973895;28;20436;-72
2023/07/03 09:25:54;;;;;;;1999.90;999.90;;;23.00;91.70;;;;;;4975080;28;20834;-71
2023/07/03 09:28:21;;;;;;;1999.90;999.90;;;23.30;91.90;;;;;;4974948;28;20428;-71
2023/07/03 09:30:48;;;;;;;1999.90;999.90;;;22.60;90.60;;;;;;4973460;28;20440;-72
2023/07/03 09:33:14;;;;;;;1999.90;999.90;;;22.70;90.80;;;;;;4974352;28;20424;-72
2023/07/03 09:35:42;;;;;;;1999.90;999.90;;;22.80;91.10;;;;;;4973822;28;20484;-72
2023/07/03 09:38:15;;;;;;;1999.90;999.90;;;23.10;91.10;;;;;;4977693;28;20514;-72
2023/07/03 09:40:43;;;;;;;1999.90;999.90;;;23.20;88.90;;;;;;4970257;28;20452;-73
2023/07/03 09:43:15;;;;;;;1999.90;999.90;;;23.50;90.40;;;;;;4972302;28;20440;-70
2023/07/03 09:45:42;;;;;;;1999.90;999.90;;;23.60;90.00;;;;;;4974785;28;20428;-74
2023/07/03 09:48:18;;;;;;;1999.90;999.90;;;22.50;89.30;;;;;;4972305;28;20435;-72
2023/07/03 09:50:46;;;;;;;1999.90;999.90;;;21.70;90.90;;;;;;4972346;28;20436;-72
2023/07/03 09:53:18;;;;;;;1999.90;999.90;;;21.30;92.10;;;;;;4977487;28;20436;-73
2023/07/03 09:55:45;;;;;;;1999.90;999.90;;;21.30;91.30;;;;;;4973180;28;20487;-73
2023/07/03 09:58:14;;;;;;;1999.90;999.90;;;21.70;89.20;;;;;;4978943;28;20844;-73
2023/07/03 10:00:47;;;;;;;1999.90;999.90;;;22.00;90.00;;;;;;4976974;28;20487;-71
2023/07/03 10:03:13;;;;;;;1999.90;999.90;;;22.80;90.00;;;;;;4982573;28;20521;-71
2023/07/03 10:05:43;;;;;;;1999.90;999.90;;;23.30;90.70;;;;;;4974267;28;20438;-70
2023/07/03 10:08:11;;;;;;;1999.90;999.90;;;23.40;86.80;;;;;;4975213;28;20443;-70
2023/07/03 10:10:38;;;;;;;1999.90;999.90;;;23.60;86.10;;;;;;4977277;28;20428;-71
2023/07/03 10:13:13;;;;;;;1999.90;999.90;;;23.40;84.90;;;;;;4982186;28;20443;-72
2023/07/03 10:15:42;;;;;;;1999.90;999.90;;;23.00;85.00;;;;;;4970967;28;20506;-73
2023/07/03 10:18:13;;;;;;;1999.90;999.90;;;22.50;86.90;;;;;;4975487;28;21130;-74
2023/07/03 10:20:43;;;;;;;1999.90;999.90;;;22.10;89.60;;;;;;4977436;28;20440;-74
2023/07/03 10:23:20;;;;;;;1999.90;999.90;;;21.40;90.70;;;;;;4971779;28;20440;-74
2023/07/03 10:25:49;;;;;;;1999.90;999.90;;;21.40;91.10;;;;;;4972883;28;20493;-74
2023/07/03 10:28:21;;;;;;;1999.90;999.90;;;21.60;92.10;;;;;;4979745;28;20484;-73
2023/07/03 10:30:53;;;;;;;1999.90;999.90;;;21.50;91.90;;;;;;4974465;28;20430;-73
2023/07/03 10:33:26;;;;;;;1999.90;999.90;;;21.30;91.60;;;;;;4970043;28;20430;-74
2023/07/03 10:35:54;;;;;;;1999.90;999.90;;;21.20;91.50;;;;;;4976168;28;20443;-74
2023/07/03 10:38:31;;;;;;;1999.90;999.90;;;20.80;91.40;;;;;;4973748;28;20479;-72
2023/07/03 10:41:01;;;;;;;1999.90;999.90;;;20.60;91.90;;;;;;4973469;28;20494;-71
2023/07/03 10:43:31;;;;;;;1999.90;999.90;;;20.50;91.80;;;;;;4972032;28;20436;-72
2023/07/03 10:45:59;;;;;;;1999.90;999.90;;;20.80;92.20;;;;;;4973727;28;20461;-70
2023/07/03 10:48:32;;;;;;;1999.90;999.90;;;21.30;92.30;;;;;;4973549;28;20899;-74
2023/07/03 10:51:12;;;;;;;1999.90;999.90;;;21.50;91.10;;;;;;4973730;28;20424;-74
2023/07/03 10:53:44;;;;;;;1999.90;999.90;;;21.40;91.50;;;;;;4972327;28;20440;-74
2023/07/03 10:56:15;;;;;;;1999.90;999.90;;;21.20;92.20;;;;;;4973178;28;20795;-73
2023/07/03 10:58:49;;;;;;;1999.90;999.90;;;21.00;91.60;;;;;;4971793;28;20800;-74
2023/07/03 11:01:22;;;;;;;1999.90;999.90;;;21.20;92.00;;;;;;4973406;28;20957;-74
2023/07/03 11:03:56;;;;;;;1999.90;999.90;;;21.50;92.10;;;;;;4977820;28;20451;-71
2023/07/03 11:06:29;;;;;;;1999.90;999.90;;;21.60;92.00;;;;;;4977944;28;20866;-74
2023/07/03 11:09:03;;;;;;;1999.90;999.90;;;21.50;92.20;;;;;;4976440;28;20514;-73
2023/07/03 11:11:39;;;;;;;1999.90;999.90;;;21.60;92.80;;;;;;4968176;28;20504;-73
2023/07/03 11:14:13;;;;;;;1999.90;999.90;;;21.60;92.20;;;;;;4976675;28;20445;-74
2023/07/03 11:16:51;;;;;;;1999.90;999.90;;;21.60;92.80;;;;;;4970590;28;20440;-74
2023/07/03 11:19:26;;;;;;;1999.90;999.90;;;21.50;92.30;;;;;;4977864;28;20438;-74
2023/07/03 11:21:58;;;;;;;1999.90;999.90;;;21.50;91.60;;;;;;4971405;28;20891;-73
2023/07/03 11:24:30;;;;;;;1999.90;999.90;;;21.30;91.70;;;;;;4971673;28;20846;-74
2023/07/03 11:27:02;;;;;;;1999.90;999.90;;;21.40;92.10;;;;;;4972816;28;20434;-72
2023/07/03 11:29:30;;;;;;;1999.90;999.90;;;21.60;92.10;;;;;;4972546;28;20413;-74
2023/07/03 11:31:57;;;;;;;1999.90;999.90;;;21.60;91.70;;;;;;4972495;28;20478;-73
2023/07/03 11:34:27;;;;;;;1999.90;999.90;;;21.80;92.30;;;;;;4969442;28;20923;-72
2023/07/03 11:36:55;;;;;;;1999.90;999.90;;;22.20;92.30;;;;;;4971779;28;20439;-71
2023/07/03 11:39:26;;;;;;;1999.90;999.90;;;22.30;92.30;;;;;;4972459;28;20479;-71
2023/07/03 11:41:55;;;;;;;1999.90;999.90;;;22.20;92.30;;;;;;4972227;28;20420;-70
2023/07/03 11:44:31;;;;;;;1999.90;999.90;;;22.60;92.20;;;;;;4970967;28;20438;-72
2023/07/03 11:47:01;;;;;;;1999.90;999.90;;;22.90;92.10;;;;;;4972539;28;20502;-69
2023/07/03 11:49:31;;;;;;;1999.90;999.90;;;22.70;91.50;;;;;;4972542;28;20466;-69
2023/07/03 11:52:00;;;;;;;1999.90;999.90;;;22.60;91.60;;;;;;4972488;28;20428;-70
2023/07/03 11:54:29;;;;;;;1999.90;999.90;;;22.60;92.10;;;;;;4970180;28;20934;-70
2023/07/03 11:57:01;;;;;;;1999.90;999.90;;;22.70;91.50;;;;;;4971514;28;20945;-71
2023/07/03 11:59:47;;;;;;;1999.90;999.90;;;22.20;91.50;;;;;;4972457;28;20506;-72
2023/07/03 12:02:52;;;;;;;1999.90;999.90;;;21.70;92.20;;;;;;4969861;28;20446;-74
2023/07/03 12:05:50;;;;;;;1999.90;999.90;;;21.50;92.70;;;;;;4970137;28;20440;-74